createdAt,value
2023-02-03T00:01:56.708Z,1.20
2023-02-03T00:04:24.100Z,1.13
2023-02-03T00:06:51.812Z,1.20
2023-02-03T00:09:19.500Z,1.33
2023-02-03T00:11:46.874Z,1.03
2023-02-03T00:14:14.158Z,1.60
2023-02-03T00:16:42.852Z,1.47
2023-02-03T00:19:10.175Z,1.33
2023-02-03T00:21:37.523Z,1.70
2023-02-03T00:24:05.083Z,2.10
2023-02-03T00:26:32.523Z,1.47
2023-02-03T00:29:00.884Z,1.70
2023-02-03T00:31:28.341Z,1.83
2023-02-03T00:33:57.687Z,1.57
2023-02-03T00:36:25.383Z,1.50
2023-02-03T00:38:52.929Z,1.40
2023-02-03T00:41:20.956Z,2.20
2023-02-03T00:43:48.263Z,2.27
2023-02-03T00:46:16.062Z,1.90
2023-02-03T00:48:43.423Z,1.37
2023-02-03T00:51:12.099Z,1.67
2023-02-03T00:53:39.462Z,2.43
2023-02-03T00:56:12.403Z,1.60
2023-02-03T00:58:39.814Z,1.23
2023-02-03T01:01:08.631Z,2.37
2023-02-03T01:03:36.041Z,2.00
2023-02-03T01:06:10.312Z,1.73
2023-02-03T01:08:38.999Z,3.17
2023-02-03T01:11:07.076Z,1.50
2023-02-03T01:13:34.454Z,3.17
2023-02-03T01:16:01.846Z,1.80
2023-02-03T01:18:29.191Z,2.40
2023-02-03T01:20:56.535Z,2.00
2023-02-03T01:23:26.510Z,2.13
2023-02-03T01:25:55.194Z,1.90
2023-02-03T01:28:22.506Z,1.77
2023-02-03T01:30:49.978Z,3.00
2023-02-03T01:33:17.457Z,2.30
2023-02-03T01:35:44.794Z,3.03
2023-02-03T01:38:12.109Z,1.13
2023-02-03T01:40:43.132Z,2.27
2023-02-03T01:43:12.337Z,1.73
2023-02-03T01:45:40.900Z,2.23
2023-02-03T01:48:09.138Z,1.87
2023-02-03T01:50:37.798Z,2.50
2023-02-03T01:53:09.247Z,1.90
2023-02-03T01:55:38.406Z,2.37
2023-02-03T01:58:08.639Z,1.60
2023-02-03T02:00:37.335Z,1.63
2023-02-03T02:03:05.409Z,2.53
2023-02-03T02:05:34.676Z,2.10
2023-02-03T02:08:03.110Z,1.90
2023-02-03T02:10:30.941Z,2.47
2023-02-03T02:12:59.216Z,0.97
2023-02-03T02:15:30.066Z,1.43
2023-02-03T02:18:12.550Z,1.60
2023-02-03T02:20:49.649Z,2.57
2023-02-03T02:23:32.917Z,1.50
2023-02-03T02:26:17.603Z,1.07
2023-02-03T02:29:00.476Z,2.80
2023-02-03T02:31:44.793Z,1.27
2023-02-03T02:34:15.871Z,2.10
2023-02-03T02:36:47.278Z,2.63
2023-02-03T02:39:19.865Z,1.57
2023-02-03T02:41:49.984Z,2.50
2023-02-03T02:44:20.626Z,1.13
2023-02-03T02:46:50.534Z,1.67
2023-02-03T02:49:20.888Z,1.70
2023-02-03T02:51:48.818Z,1.67
2023-02-03T02:54:18.285Z,0.97
2023-02-03T02:56:46.783Z,1.13
2023-02-03T02:59:15.192Z,1.30
2023-02-03T03:01:42.561Z,1.87
2023-02-03T03:04:13.513Z,1.27
2023-02-03T03:06:44.965Z,1.07
2023-02-03T03:09:13.852Z,0.87
2023-02-03T03:11:44.733Z,1.57
2023-02-03T03:14:13.807Z,1.63
2023-02-03T03:16:44.312Z,1.30
2023-02-03T03:19:14.627Z,1.13
2023-02-03T03:21:44.361Z,1.07
2023-02-03T03:24:13.912Z,1.13
2023-02-03T03:26:44.393Z,1.63
2023-02-03T03:29:14.135Z,0.87
2023-02-03T03:31:41.886Z,1.50
2023-02-03T03:34:09.729Z,1.37
2023-02-03T03:36:41.585Z,1.10
2023-02-03T03:39:12.969Z,1.37
2023-02-03T03:41:42.096Z,1.50
2023-02-03T03:44:12.171Z,1.40
2023-02-03T03:46:42.673Z,1.10
2023-02-03T03:49:11.445Z,1.03
2023-02-03T03:51:41.924Z,0.60
2023-02-03T03:54:10.958Z,1.40
2023-02-03T03:56:41.317Z,0.83
2023-02-03T03:59:09.697Z,1.20
2023-02-03T04:01:37.972Z,0.93
2023-02-03T04:04:07.984Z,1.73
2023-02-03T04:06:35.368Z,1.10
2023-02-03T04:09:04.127Z,1.20
2023-02-03T04:11:49.302Z,1.03
2023-02-03T04:14:16.738Z,0.67
2023-02-03T04:16:44.202Z,1.03
2023-02-03T04:19:11.601Z,1.57
2023-02-03T04:21:39.004Z,0.40
2023-02-03T04:24:08.077Z,1.20
2023-02-03T04:26:35.479Z,2.17
2023-02-03T04:29:03.488Z,1.60
2023-02-03T04:31:31.028Z,1.30
2023-02-03T04:33:58.501Z,1.50
2023-02-03T04:36:25.994Z,1.00
2023-02-03T04:38:53.424Z,0.50
2023-02-03T04:41:22.109Z,1.20
2023-02-03T04:43:49.508Z,1.90
2023-02-03T04:46:18.168Z,2.10
2023-02-03T04:48:45.578Z,1.80
2023-02-03T04:51:13.022Z,2.43
2023-02-03T04:53:40.495Z,2.30
2023-02-03T04:56:07.976Z,2.30
2023-02-03T04:58:37.009Z,2.13
2023-02-03T05:01:07.352Z,2.07
2023-02-03T05:03:34.891Z,2.43
2023-02-03T05:06:03.234Z,3.00
2023-02-03T05:08:31.155Z,2.77
2023-02-03T05:11:00.678Z,2.80
2023-02-03T05:13:29.335Z,2.80
2023-02-03T05:15:58.103Z,2.60
2023-02-03T05:18:25.477Z,2.37
2023-02-03T05:20:52.862Z,3.07
2023-02-03T05:23:20.309Z,3.70
2023-02-03T05:25:47.759Z,3.60
2023-02-03T05:28:15.209Z,4.27
2023-02-03T05:30:42.853Z,3.37
2023-02-03T05:33:11.652Z,4.03
2023-02-03T05:35:39.080Z,4.23
2023-02-03T05:38:06.643Z,3.90
2023-02-03T05:40:51.640Z,4.20
2023-02-03T05:43:19.012Z,3.90
2023-02-03T05:45:46.650Z,5.00
2023-02-03T05:48:15.414Z,4.97
2023-02-03T05:50:42.963Z,3.03
2023-02-03T05:53:10.526Z,5.13
2023-02-03T05:55:38.028Z,4.13
2023-02-03T05:58:05.499Z,4.80
2023-02-03T06:00:33.513Z,5.33
2023-02-03T06:03:02.777Z,6.07
2023-02-03T06:05:32.234Z,6.47
2023-02-03T06:08:00.041Z,6.37
2023-02-03T06:10:31.007Z,5.23
2023-02-03T06:12:58.402Z,5.23
2023-02-03T06:15:25.700Z,6.13
2023-02-03T06:17:53.131Z,6.47
2023-02-03T06:20:20.821Z,6.80
2023-02-03T06:22:49.537Z,6.03
2023-02-03T06:25:16.977Z,5.23
2023-02-03T06:27:44.355Z,4.50
2023-02-03T06:30:12.446Z,6.93
2023-02-03T06:32:39.874Z,5.87
2023-02-03T06:35:07.592Z,5.30
2023-02-03T06:37:35.613Z,5.83
2023-02-03T06:40:04.647Z,6.60
2023-02-03T06:42:32.368Z,7.73
2023-02-03T06:44:59.842Z,5.30
2023-02-03T06:47:27.189Z,7.57
2023-02-03T06:49:54.633Z,6.60
2023-02-03T06:52:22.063Z,5.67
2023-02-03T06:54:49.424Z,5.20
2023-02-03T06:57:18.154Z,4.20
2023-02-03T06:59:45.521Z,6.60
2023-02-03T07:02:13.075Z,7.43
2023-02-03T07:04:40.519Z,8.03
2023-02-03T07:07:07.943Z,5.37
2023-02-03T07:09:35.369Z,6.33
2023-02-03T07:12:02.756Z,8.40
2023-02-03T07:14:31.719Z,7.63
2023-02-03T07:16:59.238Z,7.00
2023-02-03T07:19:26.635Z,8.23
2023-02-03T07:21:54.044Z,9.03
2023-02-03T07:24:21.583Z,8.33
2023-02-03T07:26:49.186Z,6.83
2023-02-03T07:29:16.732Z,7.97
2023-02-03T07:31:45.601Z,6.00
2023-02-03T07:34:13.013Z,3.43
2023-02-03T07:36:41.382Z,7.83
2023-02-03T07:39:08.710Z,5.37
2023-02-03T07:41:36.134Z,5.40
2023-02-03T07:44:03.558Z,7.03
2023-02-03T07:46:31.178Z,6.27
2023-02-03T07:48:59.964Z,7.90
2023-02-03T07:51:27.609Z,6.47
2023-02-03T07:53:54.987Z,5.83
2023-02-03T07:56:22.460Z,5.57
2023-02-03T07:58:52.909Z,8.03
2023-02-03T08:01:20.319Z,7.17
2023-02-03T08:03:47.673Z,3.10
2023-02-03T08:06:16.378Z,6.17
2023-02-03T08:08:43.925Z,5.63
2023-02-03T08:11:11.773Z,7.63
2023-02-03T08:13:39.142Z,5.50
2023-02-03T08:16:07.011Z,7.23
2023-02-03T08:18:34.408Z,6.03
2023-02-03T08:21:03.605Z,4.83
2023-02-03T08:23:32.727Z,5.70
2023-02-03T08:26:00.124Z,4.93
2023-02-03T08:28:27.631Z,4.80
2023-02-03T08:30:56.526Z,5.47
2023-02-03T08:33:23.947Z,8.53
2023-02-03T08:35:51.499Z,6.10
2023-02-03T08:38:19.211Z,5.63
2023-02-03T08:40:47.946Z,5.10
2023-02-03T08:43:15.357Z,5.00
2023-02-03T08:45:42.799Z,3.33
2023-02-03T08:48:10.309Z,5.00
2023-02-03T08:50:37.672Z,5.20
2023-02-03T08:53:05.043Z,4.27
2023-02-03T08:55:32.416Z,4.23
2023-02-03T08:58:01.224Z,3.23
2023-02-03T09:00:29.198Z,4.13
2023-02-03T09:02:56.875Z,3.97
2023-02-03T09:05:24.287Z,3.90
2023-02-03T09:07:51.683Z,4.33
2023-02-03T09:10:19.071Z,4.80
2023-02-03T09:12:46.483Z,3.87
2023-02-03T09:15:15.212Z,3.87
2023-02-03T09:17:43.432Z,4.20
2023-02-03T09:20:13.229Z,3.97
2023-02-03T09:22:40.857Z,3.20
2023-02-03T09:25:09.925Z,3.90
2023-02-03T09:27:37.464Z,3.33
2023-02-03T09:30:05.356Z,4.17
2023-02-03T09:32:34.192Z,3.50
2023-02-03T09:35:01.880Z,4.00
2023-02-03T09:37:30.493Z,4.33
2023-02-03T09:39:59.071Z,3.47
2023-02-03T09:42:37.919Z,3.27
2023-02-03T09:45:11.530Z,3.57
2023-02-03T09:47:41.975Z,3.33
2023-02-03T09:50:13.449Z,3.53
2023-02-03T09:52:44.140Z,3.03
2023-02-03T09:55:17.755Z,3.17
2023-02-03T09:57:48.178Z,3.20
2023-02-03T10:00:18.000Z,2.83
2023-02-03T10:02:50.934Z,3.00
2023-02-03T10:05:21.372Z,2.37
2023-02-03T10:07:54.611Z,2.80
2023-02-03T10:10:27.157Z,2.77
2023-02-03T10:12:59.441Z,2.33
2023-02-03T10:15:45.064Z,3.80
2023-02-03T10:18:16.114Z,3.30
2023-02-03T10:20:44.825Z,2.80
2023-02-03T10:23:14.868Z,3.87
2023-02-03T10:25:43.449Z,2.87
2023-02-03T10:28:15.845Z,3.30
2023-02-03T10:30:46.426Z,3.07
2023-02-03T10:33:17.710Z,3.53
2023-02-03T10:35:50.136Z,3.03
2023-02-03T10:38:23.110Z,3.63
2023-02-03T10:40:50.905Z,2.90
2023-02-03T10:43:36.345Z,2.33
2023-02-03T10:46:04.416Z,3.10
2023-02-03T10:48:33.465Z,2.70
2023-02-03T10:51:02.741Z,3.10
2023-02-03T10:53:33.878Z,2.37
2023-02-03T10:56:03.942Z,2.23
2023-02-03T10:58:33.433Z,1.10
2023-02-03T11:01:06.921Z,1.97
2023-02-03T11:03:36.119Z,1.20
2023-02-03T11:06:08.162Z,1.07
2023-02-03T11:08:36.896Z,0.90
2023-02-03T11:11:05.320Z,2.27
2023-02-03T11:13:33.152Z,2.83
2023-02-03T11:16:01.982Z,1.83
2023-02-03T11:18:37.266Z,1.30
2023-02-03T11:21:09.124Z,1.20
2023-02-03T11:23:36.788Z,1.17
2023-02-03T11:26:11.763Z,2.00
2023-02-03T11:28:43.751Z,1.40
2023-02-03T11:31:29.534Z,1.50
2023-02-03T11:34:00.179Z,1.60
2023-02-03T11:36:29.081Z,1.30
2023-02-03T11:39:15.300Z,1.27
2023-02-03T11:41:44.023Z,1.97
2023-02-03T11:44:12.671Z,1.17
2023-02-03T11:46:40.963Z,1.77
2023-02-03T11:49:14.508Z,1.47
2023-02-03T11:51:46.993Z,2.10
2023-02-03T11:54:21.986Z,1.70
2023-02-03T11:57:05.173Z,1.53
2023-02-03T11:59:41.193Z,1.80
2023-02-03T12:02:24.260Z,1.97
2023-02-03T12:05:01.165Z,2.37
2023-02-03T12:07:42.243Z,2.80
2023-02-03T12:10:17.477Z,2.00
2023-02-03T12:12:52.307Z,2.00
2023-02-03T12:15:29.548Z,2.40
2023-02-03T12:18:05.615Z,1.57
2023-02-03T12:20:42.211Z,2.37
2023-02-03T12:23:17.324Z,2.37
2023-02-03T12:25:50.121Z,2.47
2023-02-03T12:28:33.353Z,2.50
2023-02-03T12:31:05.516Z,2.60
2023-02-03T12:33:35.956Z,3.00
2023-02-03T12:36:09.111Z,2.77
2023-02-03T12:38:39.319Z,2.60
2023-02-03T12:41:09.733Z,2.50
2023-02-03T12:43:39.710Z,2.20
2023-02-03T12:46:12.464Z,2.73
2023-02-03T12:48:44.340Z,2.57
2023-02-03T12:51:14.994Z,2.23
2023-02-03T12:53:46.328Z,2.47
2023-02-03T12:56:15.907Z,3.10
2023-02-03T12:58:46.905Z,2.30
2023-02-03T13:01:17.598Z,2.03
2023-02-03T13:03:48.856Z,2.77
2023-02-03T13:06:21.243Z,1.90
2023-02-03T13:08:55.600Z,1.17
2023-02-03T13:11:27.198Z,1.33
2023-02-03T13:13:56.850Z,1.23
2023-02-03T13:16:27.608Z,1.43
2023-02-03T13:18:57.704Z,0.70
2023-02-03T13:21:26.646Z,1.17
2023-02-03T13:23:54.246Z,1.53
2023-02-03T13:26:33.039Z,2.00
2023-02-03T13:29:07.119Z,1.40
2023-02-03T13:31:41.152Z,1.30
2023-02-03T13:34:27.683Z,2.23
2023-02-03T13:37:13.432Z,1.80
2023-02-03T13:39:47.514Z,1.00
2023-02-03T13:42:20.792Z,2.00
2023-02-03T13:44:51.674Z,2.07
2023-02-03T13:47:20.612Z,1.30
2023-02-03T13:49:53.701Z,1.77
2023-02-03T13:52:25.363Z,1.90
2023-02-03T13:54:54.534Z,1.97
2023-02-03T13:57:23.256Z,1.73
2023-02-03T13:59:50.834Z,1.47
2023-02-03T14:02:41.099Z,2.23
2023-02-03T14:05:11.351Z,1.80
2023-02-03T14:07:39.770Z,2.37
2023-02-03T14:10:23.452Z,2.37
2023-02-03T14:12:59.869Z,2.40
2023-02-03T14:15:32.599Z,2.37
2023-02-03T14:18:02.125Z,3.10
2023-02-03T14:20:56.961Z,2.13
2023-02-03T14:23:27.786Z,2.00
2023-02-03T14:25:58.645Z,1.80
2023-02-03T14:28:29.506Z,2.30
2023-02-03T14:31:10.494Z,3.00
2023-02-03T14:33:52.603Z,2.57
2023-02-03T14:36:31.200Z,2.93
2023-02-03T14:39:01.440Z,1.97
2023-02-03T14:41:34.687Z,3.07
2023-02-03T14:44:06.358Z,2.87
2023-02-03T14:46:38.188Z,3.20
2023-02-03T14:49:13.968Z,2.83
2023-02-03T14:51:51.485Z,2.80
2023-02-03T14:54:27.276Z,2.70
2023-02-03T14:57:19.585Z,3.20
2023-02-03T14:59:48.680Z,3.07
2023-02-03T15:02:21.055Z,3.40
2023-02-03T15:04:50.479Z,2.70
2023-02-03T15:07:35.083Z,4.20
2023-02-03T15:10:02.783Z,3.57
2023-02-03T15:12:37.951Z,3.53
2023-02-03T15:15:30.144Z,2.63
2023-02-03T15:17:59.659Z,2.70
2023-02-03T15:20:30.644Z,2.60
2023-02-03T15:22:58.241Z,2.80
2023-02-03T15:25:27.717Z,4.23
2023-02-03T15:28:10.883Z,2.90
2023-02-03T15:30:39.064Z,2.37
2023-02-03T15:33:08.350Z,2.87
2023-02-03T15:35:37.499Z,2.33
2023-02-03T15:38:05.819Z,2.90
2023-02-03T15:40:38.310Z,2.90
2023-02-03T15:43:10.484Z,3.03
2023-02-03T15:45:41.909Z,3.50
2023-02-03T15:48:15.870Z,2.10
2023-02-03T15:50:44.954Z,2.63
2023-02-03T15:53:18.651Z,2.33
2023-02-03T15:55:47.833Z,2.27
2023-02-03T15:58:19.712Z,3.00
2023-02-03T16:00:49.334Z,2.47
2023-02-03T16:03:19.838Z,1.80
2023-02-03T16:05:49.573Z,2.93
2023-02-03T16:08:28.589Z,1.97
2023-02-03T16:10:56.368Z,2.17
2023-02-03T16:13:26.371Z,1.60
2023-02-03T16:16:01.548Z,4.00
2023-02-03T16:18:29.340Z,2.60
2023-02-03T16:20:56.715Z,2.50
2023-02-03T16:23:27.677Z,2.20
2023-02-03T16:26:05.811Z,2.40
2023-02-03T16:28:52.879Z,3.27
2023-02-03T16:31:39.009Z,2.30
2023-02-03T16:34:32.199Z,2.10
2023-02-03T16:37:17.228Z,2.70
2023-02-03T16:40:02.548Z,2.17
2023-02-03T16:42:54.758Z,2.23
2023-02-03T16:45:41.654Z,3.37
2023-02-03T16:48:28.038Z,3.63
2023-02-03T16:50:58.242Z,3.43
2023-02-03T16:53:28.411Z,2.37
2023-02-03T16:55:57.103Z,2.50
2023-02-03T16:58:24.594Z,3.03
2023-02-03T17:00:54.015Z,3.20
2023-02-03T17:03:22.328Z,1.40
2023-02-03T17:05:50.207Z,2.77
2023-02-03T17:08:18.675Z,2.80
2023-02-03T17:10:46.133Z,2.50
2023-02-03T17:13:13.571Z,2.07
2023-02-03T17:15:41.591Z,2.23
2023-02-03T17:18:10.335Z,2.17
2023-02-03T17:20:37.814Z,4.37
2023-02-03T17:23:05.617Z,2.10
2023-02-03T17:25:33.188Z,3.07
2023-02-03T17:28:00.610Z,2.50
2023-02-03T17:30:29.011Z,2.30
2023-02-03T17:32:59.964Z,2.43
2023-02-03T17:35:29.492Z,2.27
2023-02-03T17:37:57.200Z,3.33
2023-02-03T17:54:14.649Z,2.60
2023-02-03T17:56:42.046Z,2.33
2023-02-03T17:59:10.612Z,3.23
2023-02-03T18:01:38.895Z,2.60
2023-02-03T18:04:08.771Z,3.63
2023-02-03T18:06:37.473Z,2.43
2023-02-03T18:09:05.653Z,2.03
2023-02-03T18:11:33.800Z,2.07
2023-02-03T18:14:01.257Z,3.07
2023-02-03T18:16:32.346Z,2.97
2023-02-03T18:19:00.729Z,2.90
2023-02-03T18:21:28.156Z,2.80
2023-02-03T18:24:01.596Z,3.17
2023-02-03T18:26:32.404Z,1.80
2023-02-03T18:28:59.720Z,2.20
2023-02-03T18:31:27.638Z,2.17
2023-02-03T18:33:55.148Z,3.47
2023-02-03T18:36:22.514Z,2.70
2023-02-03T18:38:49.862Z,2.73
2023-02-03T18:41:20.121Z,2.43
2023-02-03T18:43:49.080Z,2.53
2023-02-03T18:46:17.981Z,2.47
2023-02-03T18:48:45.422Z,3.43
2023-02-03T18:51:13.686Z,2.17
2023-02-03T18:53:41.850Z,2.87
2023-02-03T18:56:10.324Z,2.20
2023-02-03T18:58:39.114Z,1.93
2023-02-03T19:01:06.659Z,2.40
2023-02-03T19:03:34.323Z,2.83
2023-02-03T19:06:01.903Z,2.13
2023-02-03T19:08:29.275Z,2.00
2023-02-03T19:10:56.951Z,2.70
2023-02-03T19:13:24.295Z,2.20
2023-02-03T19:15:53.037Z,1.67
2023-02-03T19:18:20.374Z,2.07
2023-02-03T19:20:47.743Z,1.43
2023-02-03T19:23:15.553Z,2.07
2023-02-03T19:25:43.044Z,3.07
2023-02-03T19:28:17.474Z,1.70
2023-02-03T19:30:47.892Z,2.57
2023-02-03T19:33:17.205Z,1.90
2023-02-03T19:35:44.732Z,2.13
2023-02-03T19:38:12.191Z,2.33
2023-02-03T19:40:39.516Z,1.37
2023-02-03T19:43:06.914Z,1.40
2023-02-03T19:45:35.943Z,1.70
2023-02-03T19:48:03.296Z,1.90
2023-02-03T19:50:32.383Z,1.67
2023-02-03T19:52:59.833Z,1.23
2023-02-03T19:55:30.713Z,1.30
2023-02-03T19:57:59.889Z,1.40
2023-02-03T20:00:27.563Z,2.13
2023-02-03T20:02:55.211Z,1.67
2023-02-03T20:05:22.827Z,1.23
2023-02-03T20:07:52.487Z,1.67
2023-02-03T20:10:19.905Z,1.37
2023-02-03T20:12:47.274Z,1.70
2023-02-03T20:15:14.680Z,1.47
2023-02-03T20:17:42.918Z,1.40
2023-02-03T20:20:10.576Z,1.37
2023-02-03T20:22:37.973Z,1.20
2023-02-03T20:25:07.008Z,2.13
2023-02-03T20:27:34.377Z,1.37
2023-02-03T20:30:02.227Z,0.93
2023-02-03T20:32:29.693Z,1.07
2023-02-03T20:34:57.649Z,1.30
2023-02-03T20:37:25.077Z,1.27
2023-02-03T20:39:52.466Z,1.30
2023-02-03T20:42:21.157Z,1.70
2023-02-03T20:44:48.815Z,1.20
2023-02-03T20:47:18.453Z,1.03
2023-02-03T20:49:45.894Z,1.13
2023-02-03T20:52:14.016Z,0.90
2023-02-03T20:54:41.625Z,1.67
2023-02-03T20:57:13.998Z,1.33
2023-02-03T20:59:44.492Z,1.33
2023-02-03T21:02:21.962Z,1.00
2023-02-03T21:04:57.842Z,1.53
2023-02-03T21:07:27.020Z,1.13
2023-02-03T21:09:54.613Z,1.10
2023-02-03T21:12:22.084Z,1.20
2023-02-03T21:14:53.095Z,0.70
2023-02-03T21:17:21.603Z,1.07
2023-02-03T21:19:49.063Z,0.87
2023-02-03T21:22:18.362Z,0.93
2023-02-03T21:24:48.695Z,0.80
2023-02-03T21:27:29.659Z,1.23
2023-02-03T21:29:59.052Z,1.27
2023-02-03T21:32:35.186Z,0.67
2023-02-03T21:35:02.561Z,0.60
2023-02-03T21:37:38.444Z,0.90
2023-02-03T21:40:21.881Z,0.83
2023-02-03T21:42:49.504Z,0.67
2023-02-03T21:45:30.962Z,0.77
2023-02-03T21:47:59.428Z,0.70
2023-02-03T21:50:28.157Z,0.80
2023-02-03T21:52:55.648Z,0.50
2023-02-03T21:55:23.048Z,0.53
2023-02-03T21:57:50.694Z,0.50
2023-02-03T22:00:38.951Z,0.70
2023-02-03T22:03:08.765Z,0.53
2023-02-03T22:05:36.182Z,0.53
2023-02-03T22:08:13.978Z,0.70
2023-02-03T22:10:41.369Z,0.60
2023-02-03T22:13:08.745Z,0.60
2023-02-03T22:15:37.445Z,0.60
2023-02-03T22:18:05.049Z,0.90
2023-02-03T22:20:32.443Z,0.73
2023-02-03T22:22:59.854Z,0.70
2023-02-03T22:25:27.248Z,0.80
2023-02-03T22:27:54.706Z,0.60
2023-02-03T22:30:22.116Z,0.70
2023-02-03T22:32:51.008Z,0.67
2023-02-03T22:35:18.410Z,0.70
2023-02-03T22:37:45.792Z,0.90
2023-02-03T22:40:13.461Z,0.80
2023-02-03T22:42:41.072Z,0.67
2023-02-03T22:45:09.065Z,0.60
2023-02-03T22:47:36.749Z,0.70
2023-02-03T22:50:06.150Z,0.80
2023-02-03T22:52:33.781Z,1.10
2023-02-03T22:55:01.302Z,0.60
2023-02-03T22:57:28.688Z,1.10
2023-02-03T22:59:56.016Z,0.90
2023-02-03T23:02:23.367Z,0.77
2023-02-03T23:04:51.191Z,1.17
2023-02-03T23:07:19.904Z,1.03
2023-02-03T23:09:47.256Z,0.80
2023-02-03T23:12:14.705Z,0.90
2023-02-03T23:14:42.023Z,1.10
2023-02-03T23:17:09.379Z,1.53
2023-02-03T23:19:36.731Z,1.10
2023-02-03T23:22:04.085Z,1.07
2023-02-03T23:24:32.810Z,0.70
2023-02-03T23:27:00.194Z,1.10
2023-02-03T23:29:27.524Z,1.00
2023-02-03T23:31:55.087Z,1.27
2023-02-03T23:34:40.409Z,1.00
2023-02-03T23:37:07.779Z,1.27
2023-02-03T23:39:36.504Z,1.40
2023-02-03T23:42:03.895Z,1.03
2023-02-03T23:44:31.230Z,1.50
2023-02-03T23:46:58.667Z,1.20
2023-02-03T23:49:26.180Z,1.30
2023-02-03T23:51:53.555Z,1.20
2023-02-03T23:54:21.030Z,1.03
2023-02-03T23:56:49.939Z,1.53
2023-02-03T23:59:17.306Z,1.70
